sensor_id;sensor_type;location;lat;lon;timestamp;P1;durP1;ratioP1;P2;durP2;ratioP2
1719;SDS011;857;52.872;9.692;2023-09-19T00:00:33;2.63;;;2.33;;
1719;SDS011;857;52.872;9.692;2023-09-19T00:03:01;1.73;;;1.57;;
1719;SDS011;857;52.872;9.692;2023-09-19T00:05:33;2.67;;;1.97;;
1719;SDS011;857;52.872;9.692;2023-09-19T00:08:01;3.63;;;2.30;;
1719;SDS011;857;52.872;9.692;2023-09-19T00:10:30;2.90;;;2.23;;
1719;SDS011;857;52.872;9.692;2023-09-19T00:13:00;2.73;;;2.10;;
1719;SDS011;857;52.872;9.692;2023-09-19T00:15:37;3.17;;;2.07;;
1719;SDS011;857;52.872;9.692;2023-09-19T00:18:07;2.40;;;2.00;;
1719;SDS011;857;52.872;9.692;2023-09-19T00:20:35;6.07;;;2.70;;
1719;SDS011;857;52.872;9.692;2023-09-19T00:23:03;4.03;;;2.40;;
1719;SDS011;857;52.872;9.692;2023-09-19T00:25:34;4.20;;;2.63;;
1719;SDS011;857;52.872;9.692;2023-09-19T00:28:02;3.13;;;2.33;;
1719;SDS011;857;52.872;9.692;2023-09-19T00:30:31;5.33;;;2.93;;
1719;SDS011;857;52.872;9.692;2023-09-19T00:32:58;3.50;;;2.60;;
1719;SDS011;857;52.872;9.692;2023-09-19T00:35:30;3.27;;;2.37;;
1719;SDS011;857;52.872;9.692;2023-09-19T00:37:58;3.90;;;2.60;;
1719;SDS011;857;52.872;9.692;2023-09-19T00:40:26;4.20;;;2.47;;
1719;SDS011;857;52.872;9.692;2023-09-19T00:42:57;2.50;;;2.23;;
1719;SDS011;857;52.872;9.692;2023-09-19T00:45:26;3.30;;;3.00;;
1719;SDS011;857;52.872;9.692;2023-09-19T00:47:54;5.47;;;2.50;;
1719;SDS011;857;52.872;9.692;2023-09-19T00:50:24;4.50;;;2.37;;
1719;SDS011;857;52.872;9.692;2023-09-19T00:52:54;3.00;;;2.30;;
1719;SDS011;857;52.872;9.692;2023-09-19T00:55:23;4.90;;;3.30;;
1719;SDS011;857;52.872;9.692;2023-09-19T00:57:51;3.77;;;3.00;;
1719;SDS011;857;52.872;9.692;2023-09-19T01:00:19;5.30;;;3.17;;
1719;SDS011;857;52.872;9.692;2023-09-19T01:02:48;4.03;;;2.80;;
1719;SDS011;857;52.872;9.692;2023-09-19T01:05:16;3.70;;;3.30;;
1719;SDS011;857;52.872;9.692;2023-09-19T01:07:45;2.97;;;2.67;;
1719;SDS011;857;52.872;9.692;2023-09-19T01:10:16;3.10;;;2.80;;
1719;SDS011;857;52.872;9.692;2023-09-19T01:12:48;7.43;;;3.93;;
1719;SDS011;857;52.872;9.692;2023-09-19T01:15:18;4.00;;;3.20;;
1719;SDS011;857;52.872;9.692;2023-09-19T01:17:51;4.40;;;4.00;;
1719;SDS011;857;52.872;9.692;2023-09-19T01:20:27;4.17;;;3.77;;
1719;SDS011;857;52.872;9.692;2023-09-19T01:23:05;3.63;;;3.13;;
1719;SDS011;857;52.872;9.692;2023-09-19T01:28:25;3.23;;;2.93;;
1719;SDS011;857;52.872;9.692;2023-09-19T01:31:00;5.20;;;3.10;;
1719;SDS011;857;52.872;9.692;2023-09-19T01:33:31;5.37;;;3.80;;
1719;SDS011;857;52.872;9.692;2023-09-19T01:36:21;4.63;;;3.80;;
1719;SDS011;857;52.872;9.692;2023-09-19T01:38:49;3.40;;;2.60;;
1719;SDS011;857;52.872;9.692;2023-09-19T01:41:25;5.70;;;4.07;;
1719;SDS011;857;52.872;9.692;2023-09-19T01:43:53;3.90;;;2.70;;
1719;SDS011;857;52.872;9.692;2023-09-19T01:46:24;5.00;;;4.37;;
1719;SDS011;857;52.872;9.692;2023-09-19T01:48:54;5.97;;;4.73;;
1719;SDS011;857;52.872;9.692;2023-09-19T01:51:30;5.43;;;3.73;;
1719;SDS011;857;52.872;9.692;2023-09-19T01:54:00;7.70;;;4.27;;
1719;SDS011;857;52.872;9.692;2023-09-19T01:56:30;3.77;;;2.57;;
1719;SDS011;857;52.872;9.692;2023-09-19T01:59:02;5.13;;;4.63;;
1719;SDS011;857;52.872;9.692;2023-09-19T02:01:33;6.13;;;3.97;;
1719;SDS011;857;52.872;9.692;2023-09-19T02:04:02;6.00;;;4.03;;
1719;SDS011;857;52.872;9.692;2023-09-19T02:06:31;5.50;;;3.93;;
1719;SDS011;857;52.872;9.692;2023-09-19T02:08:59;4.47;;;4.07;;
1719;SDS011;857;52.872;9.692;2023-09-19T02:11:28;6.03;;;4.70;;
1719;SDS011;857;52.872;9.692;2023-09-19T02:13:56;5.77;;;3.87;;
1719;SDS011;857;52.872;9.692;2023-09-19T02:16:25;7.97;;;4.40;;
1719;SDS011;857;52.872;9.692;2023-09-19T02:18:55;4.80;;;3.57;;
1719;SDS011;857;52.872;9.692;2023-09-19T02:21:23;4.20;;;3.43;;
1719;SDS011;857;52.872;9.692;2023-09-19T02:23:51;3.60;;;2.63;;
1719;SDS011;857;52.872;9.692;2023-09-19T02:26:18;5.37;;;4.57;;
1719;SDS011;857;52.872;9.692;2023-09-19T02:28:47;5.30;;;3.70;;
1719;SDS011;857;52.872;9.692;2023-09-19T02:31:14;3.97;;;2.90;;
1719;SDS011;857;52.872;9.692;2023-09-19T02:33:43;6.37;;;4.23;;
1719;SDS011;857;52.872;9.692;2023-09-19T02:36:13;7.47;;;3.80;;
1719;SDS011;857;52.872;9.692;2023-09-19T02:38:42;4.80;;;3.17;;
1719;SDS011;857;52.872;9.692;2023-09-19T02:41:10;9.40;;;3.97;;
1719;SDS011;857;52.872;9.692;2023-09-19T02:43:38;5.00;;;3.90;;
1719;SDS011;857;52.872;9.692;2023-09-19T02:46:06;3.67;;;3.20;;
1719;SDS011;857;52.872;9.692;2023-09-19T02:48:34;4.17;;;3.63;;
1719;SDS011;857;52.872;9.692;2023-09-19T02:51:02;6.60;;;4.47;;
1719;SDS011;857;52.872;9.692;2023-09-19T02:53:32;9.43;;;3.87;;
1719;SDS011;857;52.872;9.692;2023-09-19T02:55:59;5.20;;;3.50;;
1719;SDS011;857;52.872;9.692;2023-09-19T02:58:29;3.53;;;2.50;;
1719;SDS011;857;52.872;9.692;2023-09-19T03:01:07;10.70;;;3.60;;
1719;SDS011;857;52.872;9.692;2023-09-19T03:03:35;5.63;;;3.83;;
1719;SDS011;857;52.872;9.692;2023-09-19T03:06:05;4.20;;;3.23;;
1719;SDS011;857;52.872;9.692;2023-09-19T03:08:36;2.87;;;2.20;;
1719;SDS011;857;52.872;9.692;2023-09-19T03:11:05;6.43;;;3.67;;
1719;SDS011;857;52.872;9.692;2023-09-19T03:13:36;6.50;;;3.90;;
1719;SDS011;857;52.872;9.692;2023-09-19T03:16:05;5.50;;;3.03;;
1719;SDS011;857;52.872;9.692;2023-09-19T03:18:34;5.07;;;3.20;;
1719;SDS011;857;52.872;9.692;2023-09-19T03:21:02;3.10;;;2.33;;
1719;SDS011;857;52.872;9.692;2023-09-19T03:23:30;3.90;;;2.70;;
1719;SDS011;857;52.872;9.692;2023-09-19T03:25:59;6.70;;;3.20;;
1719;SDS011;857;52.872;9.692;2023-09-19T03:28:27;6.87;;;2.77;;
1719;SDS011;857;52.872;9.692;2023-09-19T03:30:58;6.63;;;3.20;;
1719;SDS011;857;52.872;9.692;2023-09-19T03:33:27;6.20;;;3.30;;
1719;SDS011;857;52.872;9.692;2023-09-19T03:35:57;5.50;;;3.50;;
1719;SDS011;857;52.872;9.692;2023-09-19T03:38:26;5.03;;;3.67;;
1719;SDS011;857;52.872;9.692;2023-09-19T03:40:55;6.53;;;3.07;;
1719;SDS011;857;52.872;9.692;2023-09-19T03:43:24;7.20;;;3.70;;
1719;SDS011;857;52.872;9.692;2023-09-19T03:45:52;3.00;;;2.20;;
1719;SDS011;857;52.872;9.692;2023-09-19T03:48:21;4.00;;;2.37;;
1719;SDS011;857;52.872;9.692;2023-09-19T03:50:50;6.73;;;4.03;;
1719;SDS011;857;52.872;9.692;2023-09-19T03:53:18;7.10;;;3.27;;
1719;SDS011;857;52.872;9.692;2023-09-19T03:55:46;6.13;;;3.80;;
1719;SDS011;857;52.872;9.692;2023-09-19T03:58:15;6.50;;;4.00;;
1719;SDS011;857;52.872;9.692;2023-09-19T04:00:44;6.17;;;3.60;;
1719;SDS011;857;52.872;9.692;2023-09-19T04:03:13;5.27;;;3.10;;
1719;SDS011;857;52.872;9.692;2023-09-19T04:05:45;5.47;;;4.00;;
1719;SDS011;857;52.872;9.692;2023-09-19T04:08:13;3.70;;;2.50;;
1719;SDS011;857;52.872;9.692;2023-09-19T04:10:41;4.93;;;3.00;;
1719;SDS011;857;52.872;9.692;2023-09-19T04:13:10;6.90;;;3.80;;
1719;SDS011;857;52.872;9.692;2023-09-19T04:15:38;6.10;;;3.10;;
1719;SDS011;857;52.872;9.692;2023-09-19T04:18:08;5.47;;;2.80;;
1719;SDS011;857;52.872;9.692;2023-09-19T04:20:35;3.33;;;2.87;;
1719;SDS011;857;52.872;9.692;2023-09-19T04:23:03;4.70;;;3.40;;
1719;SDS011;857;52.872;9.692;2023-09-19T04:25:31;3.70;;;2.40;;
1719;SDS011;857;52.872;9.692;2023-09-19T04:27:59;4.13;;;2.87;;
1719;SDS011;857;52.872;9.692;2023-09-19T04:30:26;7.67;;;3.40;;
1719;SDS011;857;52.872;9.692;2023-09-19T04:32:54;2.73;;;2.53;;
1719;SDS011;857;52.872;9.692;2023-09-19T04:35:23;3.43;;;2.73;;
1719;SDS011;857;52.872;9.692;2023-09-19T04:37:52;4.43;;;2.57;;
1719;SDS011;857;52.872;9.692;2023-09-19T04:40:20;4.93;;;2.80;;
1719;SDS011;857;52.872;9.692;2023-09-19T04:42:52;4.77;;;3.50;;
1719;SDS011;857;52.872;9.692;2023-09-19T04:45:22;3.90;;;2.97;;
1719;SDS011;857;52.872;9.692;2023-09-19T04:47:50;3.03;;;2.13;;
1719;SDS011;857;52.872;9.692;2023-09-19T04:50:18;4.47;;;3.20;;
1719;SDS011;857;52.872;9.692;2023-09-19T04:52:50;4.37;;;3.10;;
1719;SDS011;857;52.872;9.692;2023-09-19T04:55:18;4.20;;;3.00;;
1719;SDS011;857;52.872;9.692;2023-09-19T04:57:46;5.43;;;3.10;;
1719;SDS011;857;52.872;9.692;2023-09-19T05:00:15;3.80;;;2.80;;
1719;SDS011;857;52.872;9.692;2023-09-19T05:02:44;5.37;;;3.13;;
1719;SDS011;857;52.872;9.692;2023-09-19T05:05:12;5.33;;;3.10;;
1719;SDS011;857;52.872;9.692;2023-09-19T05:07:42;4.10;;;2.73;;
1719;SDS011;857;52.872;9.692;2023-09-19T05:10:12;6.07;;;4.53;;
1719;SDS011;857;52.872;9.692;2023-09-19T05:12:39;5.37;;;2.73;;
1719;SDS011;857;52.872;9.692;2023-09-19T05:15:07;7.20;;;2.70;;
1719;SDS011;857;52.872;9.692;2023-09-19T05:17:35;2.97;;;2.27;;
1719;SDS011;857;52.872;9.692;2023-09-19T05:20:04;4.43;;;3.03;;
1719;SDS011;857;52.872;9.692;2023-09-19T05:22:41;4.60;;;2.87;;
1719;SDS011;857;52.872;9.692;2023-09-19T05:25:09;5.80;;;2.70;;
1719;SDS011;857;52.872;9.692;2023-09-19T05:27:38;5.53;;;3.20;;
1719;SDS011;857;52.872;9.692;2023-09-19T05:30:06;7.60;;;3.30;;
1719;SDS011;857;52.872;9.692;2023-09-19T05:32:33;5.10;;;2.67;;
1719;SDS011;857;52.872;9.692;2023-09-19T05:35:01;4.57;;;3.13;;
1719;SDS011;857;52.872;9.692;2023-09-19T05:37:29;7.93;;;3.50;;
1719;SDS011;857;52.872;9.692;2023-09-19T05:39:57;6.57;;;2.67;;
1719;SDS011;857;52.872;9.692;2023-09-19T05:42:25;4.10;;;3.00;;
1719;SDS011;857;52.872;9.692;2023-09-19T05:44:54;8.40;;;3.33;;
1719;SDS011;857;52.872;9.692;2023-09-19T05:47:22;4.17;;;2.57;;
1719;SDS011;857;52.872;9.692;2023-09-19T05:49:50;3.60;;;2.50;;
1719;SDS011;857;52.872;9.692;2023-09-19T05:52:19;6.80;;;3.10;;
1719;SDS011;857;52.872;9.692;2023-09-19T05:54:47;5.87;;;2.50;;
1719;SDS011;857;52.872;9.692;2023-09-19T05:57:16;5.93;;;2.83;;
1719;SDS011;857;52.872;9.692;2023-09-19T05:59:44;5.33;;;3.20;;
1719;SDS011;857;52.872;9.692;2023-09-19T06:02:13;5.60;;;2.60;;
1719;SDS011;857;52.872;9.692;2023-09-19T06:04:41;4.90;;;2.93;;
1719;SDS011;857;52.872;9.692;2023-09-19T06:07:09;6.67;;;3.50;;
1719;SDS011;857;52.872;9.692;2023-09-19T06:09:37;5.10;;;2.87;;
1719;SDS011;857;52.872;9.692;2023-09-19T06:12:05;3.03;;;2.63;;
1719;SDS011;857;52.872;9.692;2023-09-19T06:14:33;6.73;;;3.07;;
1719;SDS011;857;52.872;9.692;2023-09-19T06:17:01;6.00;;;3.43;;
1719;SDS011;857;52.872;9.692;2023-09-19T06:19:30;7.13;;;2.30;;
1719;SDS011;857;52.872;9.692;2023-09-19T06:21:58;3.30;;;2.30;;
1719;SDS011;857;52.872;9.692;2023-09-19T06:24:26;6.07;;;4.00;;
1719;SDS011;857;52.872;9.692;2023-09-19T06:26:53;5.67;;;4.10;;
1719;SDS011;857;52.872;9.692;2023-09-19T06:29:21;8.20;;;3.30;;
1719;SDS011;857;52.872;9.692;2023-09-19T06:31:49;6.87;;;4.23;;
1719;SDS011;857;52.872;9.692;2023-09-19T06:34:16;5.63;;;3.03;;
1719;SDS011;857;52.872;9.692;2023-09-19T06:36:46;2.93;;;2.63;;
1719;SDS011;857;52.872;9.692;2023-09-19T06:39:13;6.90;;;3.67;;
1719;SDS011;857;52.872;9.692;2023-09-19T06:41:42;6.87;;;3.50;;
1719;SDS011;857;52.872;9.692;2023-09-19T06:44:11;4.20;;;2.90;;
1719;SDS011;857;52.872;9.692;2023-09-19T06:46:39;6.13;;;3.90;;
1719;SDS011;857;52.872;9.692;2023-09-19T06:49:10;7.40;;;4.43;;
1719;SDS011;857;52.872;9.692;2023-09-19T06:51:38;3.83;;;3.10;;
1719;SDS011;857;52.872;9.692;2023-09-19T06:54:08;9.40;;;3.60;;
1719;SDS011;857;52.872;9.692;2023-09-19T06:56:36;5.80;;;3.33;;
1719;SDS011;857;52.872;9.692;2023-09-19T06:59:04;7.03;;;3.10;;
1719;SDS011;857;52.872;9.692;2023-09-19T07:01:32;6.23;;;3.27;;
1719;SDS011;857;52.872;9.692;2023-09-19T07:04:03;3.93;;;2.97;;
1719;SDS011;857;52.872;9.692;2023-09-19T07:06:31;8.23;;;3.50;;
1719;SDS011;857;52.872;9.692;2023-09-19T07:08:59;3.70;;;3.00;;
1719;SDS011;857;52.872;9.692;2023-09-19T07:11:28;5.67;;;3.30;;
1719;SDS011;857;52.872;9.692;2023-09-19T07:13:57;8.07;;;3.10;;
1719;SDS011;857;52.872;9.692;2023-09-19T07:16:24;10.20;;;3.17;;
1719;SDS011;857;52.872;9.692;2023-09-19T07:18:55;3.50;;;2.53;;
1719;SDS011;857;52.872;9.692;2023-09-19T07:21:23;3.77;;;2.67;;
1719;SDS011;857;52.872;9.692;2023-09-19T07:23:51;5.03;;;2.23;;
1719;SDS011;857;52.872;9.692;2023-09-19T07:26:18;6.07;;;2.67;;
1719;SDS011;857;52.872;9.692;2023-09-19T07:28:48;2.73;;;1.90;;
1719;SDS011;857;52.872;9.692;2023-09-19T07:31:15;5.23;;;2.50;;
1719;SDS011;857;52.872;9.692;2023-09-19T07:33:43;7.07;;;2.47;;
1719;SDS011;857;52.872;9.692;2023-09-19T07:36:11;4.83;;;2.40;;
1719;SDS011;857;52.872;9.692;2023-09-19T07:38:39;3.30;;;1.87;;
1719;SDS011;857;52.872;9.692;2023-09-19T07:41:07;3.47;;;1.80;;
1719;SDS011;857;52.872;9.692;2023-09-19T07:43:35;6.47;;;2.27;;
1719;SDS011;857;52.872;9.692;2023-09-19T07:46:06;5.00;;;2.23;;
1719;SDS011;857;52.872;9.692;2023-09-19T07:48:34;6.17;;;1.97;;
1719;SDS011;857;52.872;9.692;2023-09-19T07:51:03;6.00;;;2.73;;
1719;SDS011;857;52.872;9.692;2023-09-19T07:53:32;6.43;;;2.13;;
1719;SDS011;857;52.872;9.692;2023-09-19T07:56:01;4.70;;;1.90;;
1719;SDS011;857;52.872;9.692;2023-09-19T07:58:29;9.13;;;1.93;;
1719;SDS011;857;52.872;9.692;2023-09-19T08:01:02;3.70;;;1.80;;
1719;SDS011;857;52.872;9.692;2023-09-19T08:03:31;5.53;;;2.67;;
1719;SDS011;857;52.872;9.692;2023-09-19T08:05:59;2.90;;;1.80;;
1719;SDS011;857;52.872;9.692;2023-09-19T08:08:28;6.37;;;1.90;;
1719;SDS011;857;52.872;9.692;2023-09-19T08:10:56;3.47;;;1.63;;
1719;SDS011;857;52.872;9.692;2023-09-19T08:13:25;5.73;;;1.70;;
1719;SDS011;857;52.872;9.692;2023-09-19T08:15:53;7.07;;;2.00;;
1719;SDS011;857;52.872;9.692;2023-09-19T08:18:20;2.23;;;1.50;;
1719;SDS011;857;52.872;9.692;2023-09-19T08:20:52;4.10;;;1.50;;
1719;SDS011;857;52.872;9.692;2023-09-19T08:23:20;5.50;;;1.90;;
1719;SDS011;857;52.872;9.692;2023-09-19T08:25:48;2.90;;;2.27;;
1719;SDS011;857;52.872;9.692;2023-09-19T08:28:16;2.37;;;1.70;;
1719;SDS011;857;52.872;9.692;2023-09-19T08:30:48;4.30;;;2.30;;
1719;SDS011;857;52.872;9.692;2023-09-19T08:33:16;2.90;;;2.23;;
1719;SDS011;857;52.872;9.692;2023-09-19T08:35:44;3.10;;;1.50;;
1719;SDS011;857;52.872;9.692;2023-09-19T08:38:13;4.33;;;1.87;;
1719;SDS011;857;52.872;9.692;2023-09-19T08:40:41;3.00;;;1.50;;
1719;SDS011;857;52.872;9.692;2023-09-19T08:43:09;2.83;;;1.80;;
1719;SDS011;857;52.872;9.692;2023-09-19T08:45:37;2.43;;;1.50;;
1719;SDS011;857;52.872;9.692;2023-09-19T08:50:49;4.10;;;1.37;;
1719;SDS011;857;52.872;9.692;2023-09-19T08:53:21;2.30;;;1.63;;
1719;SDS011;857;52.872;9.692;2023-09-19T08:55:55;3.70;;;1.57;;
1719;SDS011;857;52.872;9.692;2023-09-19T08:58:25;5.37;;;2.60;;
1719;SDS011;857;52.872;9.692;2023-09-19T09:00:55;6.13;;;1.20;;
1719;SDS011;857;52.872;9.692;2023-09-19T09:03:23;2.33;;;1.40;;
1719;SDS011;857;52.872;9.692;2023-09-19T09:05:52;5.70;;;1.90;;
1719;SDS011;857;52.872;9.692;2023-09-19T09:08:22;6.27;;;1.80;;
1719;SDS011;857;52.872;9.692;2023-09-19T09:10:50;6.47;;;1.80;;
1719;SDS011;857;52.872;9.692;2023-09-19T09:13:18;5.13;;;1.50;;
1719;SDS011;857;52.872;9.692;2023-09-19T09:15:47;3.07;;;1.47;;
1719;SDS011;857;52.872;9.692;2023-09-19T09:18:16;3.03;;;1.50;;
1719;SDS011;857;52.872;9.692;2023-09-19T09:20:44;4.80;;;1.70;;
1719;SDS011;857;52.872;9.692;2023-09-19T09:23:13;5.03;;;1.70;;
1719;SDS011;857;52.872;9.692;2023-09-19T09:25:49;5.27;;;1.43;;
1719;SDS011;857;52.872;9.692;2023-09-19T09:28:20;3.10;;;1.40;;
1719;SDS011;857;52.872;9.692;2023-09-19T09:30:48;5.10;;;1.53;;
1719;SDS011;857;52.872;9.692;2023-09-19T09:33:16;7.17;;;1.60;;
1719;SDS011;857;52.872;9.692;2023-09-19T09:35:47;3.77;;;1.50;;
1719;SDS011;857;52.872;9.692;2023-09-19T09:38:17;4.20;;;1.63;;
1719;SDS011;857;52.872;9.692;2023-09-19T09:40:45;3.80;;;1.67;;
1719;SDS011;857;52.872;9.692;2023-09-19T09:43:29;3.20;;;1.10;;
1719;SDS011;857;52.872;9.692;2023-09-19T09:46:07;2.87;;;1.90;;
1719;SDS011;857;52.872;9.692;2023-09-19T09:48:58;5.50;;;3.03;;
1719;SDS011;857;52.872;9.692;2023-09-19T09:51:44;9.23;;;1.90;;
1719;SDS011;857;52.872;9.692;2023-09-19T09:54:23;4.00;;;1.67;;
1719;SDS011;857;52.872;9.692;2023-09-19T09:56:53;2.40;;;1.23;;
1719;SDS011;857;52.872;9.692;2023-09-19T09:59:44;2.77;;;1.27;;
1719;SDS011;857;52.872;9.692;2023-09-19T10:02:13;3.70;;;1.30;;
1719;SDS011;857;52.872;9.692;2023-09-19T10:04:47;8.83;;;1.73;;
1719;SDS011;857;52.872;9.692;2023-09-19T10:07:35;2.00;;;1.30;;
1719;SDS011;857;52.872;9.692;2023-09-19T10:10:07;2.80;;;1.73;;
1719;SDS011;857;52.872;9.692;2023-09-19T10:12:47;3.47;;;1.20;;
1719;SDS011;857;52.872;9.692;2023-09-19T10:15:18;3.67;;;1.73;;
1719;SDS011;857;52.872;9.692;2023-09-19T10:17:47;4.40;;;1.50;;
1719;SDS011;857;52.872;9.692;2023-09-19T10:20:16;3.90;;;1.70;;
1719;SDS011;857;52.872;9.692;2023-09-19T10:22:50;8.30;;;2.87;;
1719;SDS011;857;52.872;9.692;2023-09-19T10:25:25;4.20;;;1.13;;
1719;SDS011;857;52.872;9.692;2023-09-19T10:27:54;4.63;;;1.50;;
1719;SDS011;857;52.872;9.692;2023-09-19T10:30:25;3.83;;;2.03;;
1719;SDS011;857;52.872;9.692;2023-09-19T10:32:57;2.30;;;1.70;;
1719;SDS011;857;52.872;9.692;2023-09-19T10:35:27;3.73;;;1.60;;
1719;SDS011;857;52.872;9.692;2023-09-19T10:37:55;3.17;;;1.77;;
1719;SDS011;857;52.872;9.692;2023-09-19T10:40:24;2.73;;;1.60;;
1719;SDS011;857;52.872;9.692;2023-09-19T10:42:59;3.20;;;1.80;;
1719;SDS011;857;52.872;9.692;2023-09-19T10:45:30;5.77;;;2.47;;
1719;SDS011;857;52.872;9.692;2023-09-19T10:47:58;4.80;;;2.53;;
1719;SDS011;857;52.872;9.692;2023-09-19T10:50:28;4.30;;;1.80;;
1719;SDS011;857;52.872;9.692;2023-09-19T10:52:59;5.50;;;1.67;;
1719;SDS011;857;52.872;9.692;2023-09-19T10:55:30;5.53;;;2.53;;
1719;SDS011;857;52.872;9.692;2023-09-19T10:58:02;3.33;;;2.10;;
1719;SDS011;857;52.872;9.692;2023-09-19T11:03:21;5.23;;;1.50;;
1719;SDS011;857;52.872;9.692;2023-09-19T11:06:05;3.17;;;1.90;;
1719;SDS011;857;52.872;9.692;2023-09-19T11:14:14;3.40;;;2.23;;
1719;SDS011;857;52.872;9.692;2023-09-19T11:19:27;3.60;;;1.80;;
1719;SDS011;857;52.872;9.692;2023-09-19T11:22:14;5.97;;;2.53;;
1719;SDS011;857;52.872;9.692;2023-09-19T11:24:42;3.30;;;2.23;;
1719;SDS011;857;52.872;9.692;2023-09-19T11:27:10;8.37;;;2.40;;
1719;SDS011;857;52.872;9.692;2023-09-19T11:29:39;3.10;;;1.60;;
1719;SDS011;857;52.872;9.692;2023-09-19T11:32:07;2.60;;;1.90;;
1719;SDS011;857;52.872;9.692;2023-09-19T11:34:43;2.87;;;1.67;;
1719;SDS011;857;52.872;9.692;2023-09-19T11:42:42;6.23;;;1.87;;
1719;SDS011;857;52.872;9.692;2023-09-19T11:47:57;4.20;;;1.67;;
1719;SDS011;857;52.872;9.692;2023-09-19T11:50:29;5.20;;;2.53;;
1719;SDS011;857;52.872;9.692;2023-09-19T11:53:00;4.57;;;2.10;;
1719;SDS011;857;52.872;9.692;2023-09-19T11:55:28;5.10;;;2.20;;
1719;SDS011;857;52.872;9.692;2023-09-19T11:57:58;8.23;;;2.47;;
1719;SDS011;857;52.872;9.692;2023-09-19T12:00:26;6.33;;;2.30;;
1719;SDS011;857;52.872;9.692;2023-09-19T12:02:54;5.10;;;2.00;;
1719;SDS011;857;52.872;9.692;2023-09-19T12:05:29;5.97;;;2.33;;
1719;SDS011;857;52.872;9.692;2023-09-19T12:08:00;2.03;;;1.70;;
1719;SDS011;857;52.872;9.692;2023-09-19T12:10:28;4.23;;;1.60;;
1719;SDS011;857;52.872;9.692;2023-09-19T12:12:56;3.90;;;1.83;;
1719;SDS011;857;52.872;9.692;2023-09-19T12:15:25;3.70;;;2.30;;
1719;SDS011;857;52.872;9.692;2023-09-19T12:17:55;4.93;;;2.17;;
1719;SDS011;857;52.872;9.692;2023-09-19T12:20:22;3.93;;;1.97;;
1719;SDS011;857;52.872;9.692;2023-09-19T12:22:52;4.87;;;2.60;;
1719;SDS011;857;52.872;9.692;2023-09-19T12:25:20;7.63;;;2.80;;
1719;SDS011;857;52.872;9.692;2023-09-19T12:27:49;5.70;;;3.20;;
1719;SDS011;857;52.872;9.692;2023-09-19T12:30:18;4.53;;;2.70;;
1719;SDS011;857;52.872;9.692;2023-09-19T12:32:46;3.80;;;1.87;;
1719;SDS011;857;52.872;9.692;2023-09-19T12:35:26;5.00;;;2.17;;
1719;SDS011;857;52.872;9.692;2023-09-19T12:37:57;4.60;;;2.20;;
1719;SDS011;857;52.872;9.692;2023-09-19T12:40:25;3.17;;;2.00;;
1719;SDS011;857;52.872;9.692;2023-09-19T12:42:54;6.20;;;2.70;;
1719;SDS011;857;52.872;9.692;2023-09-19T12:45:24;4.77;;;2.50;;
1719;SDS011;857;52.872;9.692;2023-09-19T12:53:26;3.20;;;2.27;;
1719;SDS011;857;52.872;9.692;2023-09-19T12:55:57;4.73;;;2.90;;
1719;SDS011;857;52.872;9.692;2023-09-19T12:58:25;5.43;;;2.57;;
1719;SDS011;857;52.872;9.692;2023-09-19T13:00:56;6.13;;;3.13;;
1719;SDS011;857;52.872;9.692;2023-09-19T13:03:27;5.07;;;2.50;;
1719;SDS011;857;52.872;9.692;2023-09-19T13:05:57;4.30;;;2.80;;
1719;SDS011;857;52.872;9.692;2023-09-19T13:08:28;7.50;;;3.07;;
1719;SDS011;857;52.872;9.692;2023-09-19T13:11:03;3.37;;;2.47;;
1719;SDS011;857;52.872;9.692;2023-09-19T13:13:35;5.93;;;3.37;;
1719;SDS011;857;52.872;9.692;2023-09-19T13:16:03;8.47;;;3.60;;
1719;SDS011;857;52.872;9.692;2023-09-19T13:18:43;2.43;;;2.20;;
1719;SDS011;857;52.872;9.692;2023-09-19T13:21:11;5.00;;;3.20;;
1719;SDS011;857;52.872;9.692;2023-09-19T13:23:50;4.07;;;2.90;;
1719;SDS011;857;52.872;9.692;2023-09-19T13:26:18;3.77;;;2.67;;
1719;SDS011;857;52.872;9.692;2023-09-19T13:28:46;6.80;;;3.60;;
1719;SDS011;857;52.872;9.692;2023-09-19T13:31:15;6.07;;;3.53;;
1719;SDS011;857;52.872;9.692;2023-09-19T13:33:44;5.90;;;3.10;;
1719;SDS011;857;52.872;9.692;2023-09-19T13:36:12;7.80;;;3.30;;
1719;SDS011;857;52.872;9.692;2023-09-19T13:38:40;5.43;;;3.23;;
1719;SDS011;857;52.872;9.692;2023-09-19T13:41:10;3.40;;;3.10;;
1719;SDS011;857;52.872;9.692;2023-09-19T13:43:38;5.57;;;3.07;;
1719;SDS011;857;52.872;9.692;2023-09-19T13:46:05;3.47;;;3.17;;
1719;SDS011;857;52.872;9.692;2023-09-19T13:48:37;4.73;;;3.80;;
1719;SDS011;857;52.872;9.692;2023-09-19T13:51:05;7.10;;;3.40;;
1719;SDS011;857;52.872;9.692;2023-09-19T13:53:33;4.77;;;2.93;;
1719;SDS011;857;52.872;9.692;2023-09-19T13:56:00;7.30;;;3.47;;
1719;SDS011;857;52.872;9.692;2023-09-19T13:58:29;5.87;;;3.13;;
1719;SDS011;857;52.872;9.692;2023-09-19T14:00:59;5.80;;;3.00;;
1719;SDS011;857;52.872;9.692;2023-09-19T14:03:26;2.80;;;2.33;;
1719;SDS011;857;52.872;9.692;2023-09-19T14:05:54;4.47;;;3.50;;
1719;SDS011;857;52.872;9.692;2023-09-19T14:08:23;4.67;;;3.13;;
1719;SDS011;857;52.872;9.692;2023-09-19T14:10:50;4.27;;;2.83;;
1719;SDS011;857;52.872;9.692;2023-09-19T14:13:19;4.73;;;3.20;;
1719;SDS011;857;52.872;9.692;2023-09-19T14:15:48;6.67;;;3.00;;
1719;SDS011;857;52.872;9.692;2023-09-19T14:18:16;7.30;;;3.03;;
1719;SDS011;857;52.872;9.692;2023-09-19T14:20:44;8.10;;;2.50;;
1719;SDS011;857;52.872;9.692;2023-09-19T14:23:11;3.70;;;2.63;;
1719;SDS011;857;52.872;9.692;2023-09-19T14:25:39;4.50;;;2.87;;
1719;SDS011;857;52.872;9.692;2023-09-19T14:28:07;3.40;;;2.60;;
1719;SDS011;857;52.872;9.692;2023-09-19T14:30:35;5.97;;;3.07;;
1719;SDS011;857;52.872;9.692;2023-09-19T14:33:05;5.40;;;2.50;;
1719;SDS011;857;52.872;9.692;2023-09-19T14:35:33;6.23;;;2.73;;
1719;SDS011;857;52.872;9.692;2023-09-19T14:38:00;5.17;;;2.30;;
1719;SDS011;857;52.872;9.692;2023-09-19T14:40:28;4.67;;;2.60;;
1719;SDS011;857;52.872;9.692;2023-09-19T14:42:56;3.83;;;2.63;;
1719;SDS011;857;52.872;9.692;2023-09-19T14:45:24;3.10;;;2.30;;
1719;SDS011;857;52.872;9.692;2023-09-19T14:47:52;4.43;;;2.37;;
1719;SDS011;857;52.872;9.692;2023-09-19T14:50:21;4.33;;;2.53;;
1719;SDS011;857;52.872;9.692;2023-09-19T14:52:49;3.80;;;2.47;;
1719;SDS011;857;52.872;9.692;2023-09-19T14:55:17;3.67;;;2.10;;
1719;SDS011;857;52.872;9.692;2023-09-19T14:57:48;3.50;;;2.17;;
1719;SDS011;857;52.872;9.692;2023-09-19T15:00:17;6.20;;;2.07;;
1719;SDS011;857;52.872;9.692;2023-09-19T15:02:47;2.60;;;2.20;;
1719;SDS011;857;52.872;9.692;2023-09-19T15:05:15;5.37;;;2.20;;
1719;SDS011;857;52.872;9.692;2023-09-19T15:07:45;4.93;;;2.60;;
1719;SDS011;857;52.872;9.692;2023-09-19T15:10:13;5.80;;;2.50;;
1719;SDS011;857;52.872;9.692;2023-09-19T15:12:42;3.20;;;2.00;;
1719;SDS011;857;52.872;9.692;2023-09-19T15:15:10;2.87;;;2.40;;
1719;SDS011;857;52.872;9.692;2023-09-19T15:17:38;4.90;;;2.03;;
1719;SDS011;857;52.872;9.692;2023-09-19T15:20:06;2.47;;;1.47;;
1719;SDS011;857;52.872;9.692;2023-09-19T15:22:34;4.67;;;1.90;;
1719;SDS011;857;52.872;9.692;2023-09-19T15:25:04;6.20;;;2.00;;
1719;SDS011;857;52.872;9.692;2023-09-19T15:27:31;3.60;;;2.37;;
1719;SDS011;857;52.872;9.692;2023-09-19T15:29:59;5.20;;;3.40;;
1719;SDS011;857;52.872;9.692;2023-09-19T15:32:30;3.23;;;1.80;;
1719;SDS011;857;52.872;9.692;2023-09-19T15:34:58;5.10;;;1.90;;
1719;SDS011;857;52.872;9.692;2023-09-19T15:37:26;5.17;;;2.23;;
1719;SDS011;857;52.872;9.692;2023-09-19T15:39:54;6.30;;;2.13;;
1719;SDS011;857;52.872;9.692;2023-09-19T15:42:23;3.63;;;1.50;;
1719;SDS011;857;52.872;9.692;2023-09-19T15:44:50;4.60;;;1.80;;
1719;SDS011;857;52.872;9.692;2023-09-19T15:47:19;3.77;;;1.93;;
1719;SDS011;857;52.872;9.692;2023-09-19T15:49:47;3.73;;;1.97;;
1719;SDS011;857;52.872;9.692;2023-09-19T15:52:16;2.57;;;1.90;;
1719;SDS011;857;52.872;9.692;2023-09-19T15:54:44;6.20;;;2.20;;
1719;SDS011;857;52.872;9.692;2023-09-19T15:57:12;4.00;;;2.10;;
1719;SDS011;857;52.872;9.692;2023-09-19T15:59:41;2.10;;;1.83;;
1719;SDS011;857;52.872;9.692;2023-09-19T16:02:12;3.20;;;2.00;;
1719;SDS011;857;52.872;9.692;2023-09-19T16:04:40;2.07;;;1.57;;
1719;SDS011;857;52.872;9.692;2023-09-19T16:07:09;3.13;;;1.70;;
1719;SDS011;857;52.872;9.692;2023-09-19T16:09:37;3.73;;;1.83;;
1719;SDS011;857;52.872;9.692;2023-09-19T16:12:05;4.10;;;1.63;;
1719;SDS011;857;52.872;9.692;2023-09-19T16:14:34;2.70;;;1.50;;